sensor_id;sensor_type;location;lat;lon;timestamp;pressure;altitude;pressure_sealevel;temperature;humidity
21182;BME280;10749;46.296;7.524;2022-08-02T00:00:04;94996.03;;;27.23;29.10
21182;BME280;10749;46.296;7.524;2022-08-02T00:02:29;94988.44;;;27.20;29.53
21182;BME280;10749;46.296;7.524;2022-08-02T00:04:55;94984.09;;;27.19;29.38
21182;BME280;10749;46.296;7.524;2022-08-02T00:07:20;94988.22;;;27.11;30.15
21182;BME280;10749;46.296;7.524;2022-08-02T00:09:45;95005.09;;;26.98;29.97
21182;BME280;10749;46.296;7.524;2022-08-02T00:12:11;95003.19;;;26.98;30.06
21182;BME280;10749;46.296;7.524;2022-08-02T00:14:37;94997.25;;;26.91;30.70
21182;BME280;10749;46.296;7.524;2022-08-02T00:17:03;94999.13;;;26.96;30.18
21182;BME280;10749;46.296;7.524;2022-08-02T00:19:29;94999.16;;;26.86;30.77
21182;BME280;10749;46.296;7.524;2022-08-02T00:21:54;95005.16;;;26.73;30.40
21182;BME280;10749;46.296;7.524;2022-08-02T00:24:20;95001.69;;;26.57;30.85
21182;BME280;10749;46.296;7.524;2022-08-02T00:26:45;94997.06;;;26.57;30.76
21182;BME280;10749;46.296;7.524;2022-08-02T00:29:10;95002.19;;;26.69;30.52
21182;BME280;10749;46.296;7.524;2022-08-02T00:31:35;94995.66;;;26.70;31.15
21182;BME280;10749;46.296;7.524;2022-08-02T00:34:01;95000.56;;;26.63;30.96
21182;BME280;10749;46.296;7.524;2022-08-02T00:36:27;95005.47;;;26.61;30.88
21182;BME280;10749;46.296;7.524;2022-08-02T00:38:52;95008.75;;;26.48;31.61
21182;BME280;10749;46.296;7.524;2022-08-02T00:41:19;95007.41;;;26.45;31.34
21182;BME280;10749;46.296;7.524;2022-08-02T00:43:46;95007.94;;;26.47;31.30
21182;BME280;10749;46.296;7.524;2022-08-02T00:46:12;95007.38;;;26.50;31.35
21182;BME280;10749;46.296;7.524;2022-08-02T00:48:37;95001.97;;;26.45;32.16
21182;BME280;10749;46.296;7.524;2022-08-02T00:51:03;95016.63;;;26.39;31.56
21182;BME280;10749;46.296;7.524;2022-08-02T00:53:28;95009.84;;;26.32;31.52
21182;BME280;10749;46.296;7.524;2022-08-02T00:55:54;95003.91;;;26.25;31.08
21182;BME280;10749;46.296;7.524;2022-08-02T00:58:19;95003.91;;;26.25;31.52
21182;BME280;10749;46.296;7.524;2022-08-02T01:00:44;95009.03;;;26.31;31.28
21182;BME280;10749;46.296;7.524;2022-08-02T01:03:10;95003.63;;;26.31;31.05
21182;BME280;10749;46.296;7.524;2022-08-02T01:05:35;95004.19;;;26.28;31.27
21182;BME280;10749;46.296;7.524;2022-08-02T01:08:01;95007.41;;;26.30;30.90
21182;BME280;10749;46.296;7.524;2022-08-02T01:10:26;95016.38;;;26.26;31.81
21182;BME280;10749;46.296;7.524;2022-08-02T01:12:52;95010.13;;;26.10;31.65
21182;BME280;10749;46.296;7.524;2022-08-02T01:15:17;95013.94;;;26.04;32.78
21182;BME280;10749;46.296;7.524;2022-08-02T01:23:18;95018.53;;;26.03;32.34
21182;BME280;10749;46.296;7.524;2022-08-02T01:26:15;95023.16;;;26.13;31.54
21182;BME280;10749;46.296;7.524;2022-08-02T01:29:06;95018.25;;;26.15;31.55
21182;BME280;10749;46.296;7.524;2022-08-02T01:31:39;95023.16;;;26.13;31.82
21182;BME280;10749;46.296;7.524;2022-08-02T01:37:02;95023.69;;;26.10;31.73
21182;BME280;10749;46.296;7.524;2022-08-02T01:39:29;95020.44;;;26.08;31.86
21182;BME280;10749;46.296;7.524;2022-08-02T01:41:58;95026.38;;;26.10;31.67
21182;BME280;10749;46.296;7.524;2022-08-02T01:44:27;95024.50;;;26.05;31.38
21182;BME280;10749;46.296;7.524;2022-08-02T01:46:58;95028.56;;;26.08;31.52
21182;BME280;10749;46.296;7.524;2022-08-02T01:49:26;95028.56;;;26.08;31.54
21182;BME280;10749;46.296;7.524;2022-08-02T01:51:53;95025.31;;;26.06;31.62
21182;BME280;10749;46.296;7.524;2022-08-02T01:54:44;95019.06;;;26.05;31.39
21182;BME280;10749;46.296;7.524;2022-08-02T01:57:12;95029.13;;;26.00;32.26
21182;BME280;10749;46.296;7.524;2022-08-02T01:59:40;95027.47;;;25.99;32.29
21182;BME280;10749;46.296;7.524;2022-08-02T02:02:07;95029.09;;;25.90;32.19
21182;BME280;10749;46.296;7.524;2022-08-02T02:04:34;95030.72;;;25.91;32.45
21182;BME280;10749;46.296;7.524;2022-08-02T02:07:01;95028.56;;;25.93;32.47
21182;BME280;10749;46.296;7.524;2022-08-02T02:09:27;95026.09;;;25.81;32.96
21182;BME280;10749;46.296;7.524;2022-08-02T02:11:55;95023.13;;;25.83;32.92
21182;BME280;10749;46.296;7.524;2022-08-02T02:14:23;95023.41;;;25.86;32.25
21182;BME280;10749;46.296;7.524;2022-08-02T02:16:49;95022.56;;;25.81;32.50
21182;BME280;10749;46.296;7.524;2022-08-02T02:19:16;95025.28;;;25.70;32.63
21182;BME280;10749;46.296;7.524;2022-08-02T02:21:42;95025.81;;;25.72;32.87
21182;BME280;10749;46.296;7.524;2022-08-02T02:24:08;95031.25;;;25.67;32.93
21182;BME280;10749;46.296;7.524;2022-08-02T02:26:34;95025.28;;;25.60;33.30
21182;BME280;10749;46.296;7.524;2022-08-02T02:29:02;95028.47;;;25.52;33.30
21182;BME280;10749;46.296;7.524;2022-08-02T02:31:31;95019.25;;;25.43;33.65
21182;BME280;10749;46.296;7.524;2022-08-02T02:34:02;95019.25;;;25.43;33.43
21182;BME280;10749;46.296;7.524;2022-08-02T02:36:29;95016.00;;;25.41;33.49
21182;BME280;10749;46.296;7.524;2022-08-02T02:38:59;95019.22;;;25.33;33.20
21182;BME280;10749;46.296;7.524;2022-08-02T02:41:25;95012.13;;;25.22;32.96
21182;BME280;10749;46.296;7.524;2022-08-02T02:43:53;95008.34;;;25.23;34.01
21182;BME280;10749;46.296;7.524;2022-08-02T02:46:20;95018.38;;;25.17;33.72
21182;BME280;10749;46.296;7.524;2022-08-02T02:48:48;95017.56;;;25.17;33.64
21182;BME280;10749;46.296;7.524;2022-08-02T02:51:15;95022.38;;;25.10;33.98
21182;BME280;10749;46.296;7.524;2022-08-02T02:53:42;95012.59;;;24.99;34.04
21182;BME280;10749;46.296;7.524;2022-08-02T02:56:09;95026.16;;;24.99;33.75
21182;BME280;10749;46.296;7.524;2022-08-02T02:58:37;95028.28;;;24.92;34.08
21182;BME280;10749;46.296;7.524;2022-08-02T03:01:03;95026.13;;;24.94;33.94
21182;BME280;10749;46.296;7.524;2022-08-02T03:03:48;95020.13;;;24.87;34.66
21182;BME280;10749;46.296;7.524;2022-08-02T03:06:13;95030.97;;;24.87;34.28
21182;BME280;10749;46.296;7.524;2022-08-02T03:08:39;95029.34;;;24.86;34.50
21182;BME280;10749;46.296;7.524;2022-08-02T03:11:06;95027.69;;;24.85;34.82
21182;BME280;10749;46.296;7.524;2022-08-02T03:13:33;95030.88;;;24.76;35.15
21182;BME280;10749;46.296;7.524;2022-08-02T03:16:00;95032.47;;;24.72;35.33
21182;BME280;10749;46.296;7.524;2022-08-02T03:18:34;95031.66;;;24.67;35.28
21182;BME280;10749;46.296;7.524;2022-08-02T03:21:01;95026.53;;;24.70;34.98
21182;BME280;10749;46.296;7.524;2022-08-02T03:23:26;95038.91;;;24.61;35.10
21182;BME280;10749;46.296;7.524;2022-08-02T03:25:52;95042.69;;;24.60;34.99
21182;BME280;10749;46.296;7.524;2022-08-02T03:28:17;95036.75;;;24.58;35.25
21182;BME280;10749;46.296;7.524;2022-08-02T03:30:42;95038.09;;;24.61;35.07
21182;BME280;10749;46.296;7.524;2022-08-02T03:33:08;95040.00;;;24.60;34.94
21182;BME280;10749;46.296;7.524;2022-08-02T03:35:34;95041.31;;;24.53;34.97
21182;BME280;10749;46.296;7.524;2022-08-02T03:38:02;95035.88;;;24.53;35.44
21182;BME280;10749;46.296;7.524;2022-08-02T03:40:30;95041.00;;;24.49;35.30
21182;BME280;10749;46.296;7.524;2022-08-02T03:42:56;95046.38;;;24.39;36.06
21182;BME280;10749;46.296;7.524;2022-08-02T03:45:21;95043.09;;;24.37;36.30
21182;BME280;10749;46.296;7.524;2022-08-02T03:47:48;95049.03;;;24.34;36.31
21182;BME280;10749;46.296;7.524;2022-08-02T03:50:14;95053.34;;;24.35;35.81
21182;BME280;10749;46.296;7.524;2022-08-02T03:52:41;95048.47;;;24.32;36.33
21182;BME280;10749;46.296;7.524;2022-08-02T03:55:08;95048.75;;;24.30;36.14
21182;BME280;10749;46.296;7.524;2022-08-02T03:57:39;95049.25;;;24.27;36.60
21182;BME280;10749;46.296;7.524;2022-08-02T04:00:06;95053.53;;;24.23;36.66
21182;BME280;10749;46.296;7.524;2022-08-02T04:02:31;95058.13;;;24.23;36.26
21182;BME280;10749;46.296;7.524;2022-08-02T04:04:57;95057.06;;;24.24;36.37
21182;BME280;10749;46.296;7.524;2022-08-02T04:07:22;95056.53;;;24.22;36.09
21182;BME280;10749;46.296;7.524;2022-08-02T04:09:47;95056.94;;;24.09;36.69
21182;BME280;10749;46.296;7.524;2022-08-02T04:12:13;95055.81;;;24.05;36.88
21182;BME280;10749;46.296;7.524;2022-08-02T04:14:38;95057.94;;;24.03;36.44
21182;BME280;10749;46.296;7.524;2022-08-02T04:17:07;95065.56;;;24.06;36.52
21182;BME280;10749;46.296;7.524;2022-08-02T04:22:03;95062.88;;;24.11;36.06
21182;BME280;10749;46.296;7.524;2022-08-02T04:24:34;95066.97;;;24.13;36.18
21182;BME280;10749;46.296;7.524;2022-08-02T04:27:01;95065.09;;;24.14;35.99
21182;BME280;10749;46.296;7.524;2022-08-02T04:29:27;95069.38;;;24.10;36.27
21182;BME280;10749;46.296;7.524;2022-08-02T04:31:55;95062.97;;;24.16;35.97
21182;BME280;10749;46.296;7.524;2022-08-02T04:34:21;95067.28;;;24.17;35.94
21182;BME280;10749;46.296;7.524;2022-08-02T04:36:46;95075.41;;;24.17;35.67
21182;BME280;10749;46.296;7.524;2022-08-02T04:39:12;95074.84;;;24.15;35.98
21182;BME280;10749;46.296;7.524;2022-08-02T04:41:39;95075.91;;;24.14;36.12
21182;BME280;10749;46.296;7.524;2022-08-02T04:44:05;95073.19;;;24.14;35.99
21182;BME280;10749;46.296;7.524;2022-08-02T04:46:31;95076.41;;;24.11;35.95
21182;BME280;10749;46.296;7.524;2022-08-02T04:48:56;95079.88;;;24.06;36.11
21182;BME280;10749;46.296;7.524;2022-08-02T04:51:21;95087.22;;;24.11;36.27
21182;BME280;10749;46.296;7.524;2022-08-02T04:53:47;95084.81;;;24.14;36.40
21182;BME280;10749;46.296;7.524;2022-08-02T04:56:12;95087.50;;;24.14;36.37
21182;BME280;10749;46.296;7.524;2022-08-02T04:58:37;95089.91;;;24.06;36.60
21182;BME280;10749;46.296;7.524;2022-08-02T05:01:02;95098.66;;;23.91;37.25
21182;BME280;10749;46.296;7.524;2022-08-02T05:03:28;95103.88;;;23.98;36.89
21182;BME280;10749;46.296;7.524;2022-08-02T05:05:53;95105.28;;;24.05;37.34
21182;BME280;10749;46.296;7.524;2022-08-02T05:08:19;95104.59;;;24.15;36.80
21182;BME280;10749;46.296;7.524;2022-08-02T05:10:44;95103.88;;;24.24;36.70
21182;BME280;10749;46.296;7.524;2022-08-02T05:13:09;95110.38;;;24.28;36.87
21182;BME280;10749;46.296;7.524;2022-08-02T05:15:35;95116.38;;;24.30;36.76
21182;BME280;10749;46.296;7.524;2022-08-02T05:18:00;95116.72;;;24.39;36.84
21182;BME280;10749;46.296;7.524;2022-08-02T05:20:26;95113.13;;;24.33;36.93
21182;BME280;10749;46.296;7.524;2022-08-02T05:22:51;95116.66;;;24.34;36.73
21182;BME280;10749;46.296;7.524;2022-08-02T05:25:17;95118.25;;;24.30;37.82
21182;BME280;10749;46.296;7.524;2022-08-02T05:27:42;95110.19;;;24.40;37.17
21182;BME280;10749;46.296;7.524;2022-08-02T05:30:08;95102.69;;;24.47;37.47
21182;BME280;10749;46.296;7.524;2022-08-02T05:32:36;95106.47;;;24.46;37.34
21182;BME280;10749;46.296;7.524;2022-08-02T05:35:06;95101.34;;;24.50;37.33
21182;BME280;10749;46.296;7.524;2022-08-02T05:37:32;95108.69;;;24.54;37.04
21182;BME280;10749;46.296;7.524;2022-08-02T05:39:57;95103.88;;;24.61;37.27
21182;BME280;10749;46.296;7.524;2022-08-02T05:42:22;95110.38;;;24.65;37.15
21182;BME280;10749;46.296;7.524;2022-08-02T05:44:48;95107.72;;;24.70;36.60
21182;BME280;10749;46.296;7.524;2022-08-02T05:47:13;95111.28;;;24.76;36.40
21182;BME280;10749;46.296;7.524;2022-08-02T05:49:38;95111.19;;;24.66;36.75
21182;BME280;10749;46.296;7.524;2022-08-02T05:57:39;95108.69;;;24.54;37.81
21182;BME280;10749;46.296;7.524;2022-08-02T06:00:05;95106.31;;;24.63;37.72
21182;BME280;10749;46.296;7.524;2022-08-02T06:07:36;95109.25;;;24.98;36.75
21182;BME280;10749;46.296;7.524;2022-08-02T06:10:04;95105.56;;;25.09;36.53
21182;BME280;10749;46.296;7.524;2022-08-02T06:12:32;95111.25;;;25.13;37.04
21182;BME280;10749;46.296;7.524;2022-08-02T06:15:04;95108.53;;;25.18;37.04
21182;BME280;10749;46.296;7.524;2022-08-02T06:17:30;95099.94;;;25.26;36.55
21182;BME280;10749;46.296;7.524;2022-08-02T06:19:56;95105.38;;;25.36;35.97
21182;BME280;10749;46.296;7.524;2022-08-02T06:22:28;95100.81;;;25.47;36.07
21182;BME280;10749;46.296;7.524;2022-08-02T06:24:54;95103.84;;;25.55;36.06
21182;BME280;10749;46.296;7.524;2022-08-02T06:27:26;95107.66;;;25.59;36.30
21182;BME280;10749;46.296;7.524;2022-08-02T06:29:52;95102.81;;;25.66;36.17
21182;BME280;10749;46.296;7.524;2022-08-02T06:32:18;95102.53;;;25.68;36.44
21182;BME280;10749;46.296;7.524;2022-08-02T06:34:44;95110.41;;;25.69;36.46
21182;BME280;10749;46.296;7.524;2022-08-02T06:37:55;95102.28;;;25.69;36.30
21182;BME280;10749;46.296;7.524;2022-08-02T06:40:13;95105.53;;;25.77;36.16
21182;BME280;10749;46.296;7.524;2022-08-02T06:43:11;95102.88;;;25.92;35.72
21182;BME280;10749;46.296;7.524;2022-08-02T06:45:38;95101.25;;;26.11;35.75
21182;BME280;10749;46.296;7.524;2022-08-02T06:48:04;95102.38;;;26.20;35.81
21182;BME280;10749;46.296;7.524;2022-08-02T06:50:30;95102.88;;;26.12;35.48
21182;BME280;10749;46.296;7.524;2022-08-02T06:52:56;95099.13;;;26.23;35.29
21182;BME280;10749;46.296;7.524;2022-08-02T06:55:21;95092.06;;;26.32;35.29
21182;BME280;10749;46.296;7.524;2022-08-02T06:57:46;95093.97;;;26.37;34.95
21182;BME280;10749;46.296;7.524;2022-08-02T07:00:12;95089.09;;;26.24;34.71
21182;BME280;10749;46.296;7.524;2022-08-02T07:02:38;95081.22;;;26.32;35.10
21182;BME280;10749;46.296;7.524;2022-08-02T07:05:07;95074.69;;;26.43;35.10
21182;BME280;10749;46.296;7.524;2022-08-02T07:07:33;95086.63;;;26.52;34.65
21182;BME280;10749;46.296;7.524;2022-08-02T07:09:59;95072.78;;;26.64;34.71
21182;BME280;10749;46.296;7.524;2022-08-02T07:12:25;95074.41;;;26.75;34.72
21182;BME280;10749;46.296;7.524;2022-08-02T07:14:50;95066.75;;;26.92;34.83
21182;BME280;10749;46.296;7.524;2022-08-02T07:17:16;95065.91;;;27.07;34.70
21182;BME280;10749;46.296;7.524;2022-08-02T07:19:41;95064.50;;;27.20;34.60
21182;BME280;10749;46.296;7.524;2022-08-02T07:22:06;95065.56;;;27.24;34.24
21182;BME280;10749;46.296;7.524;2022-08-02T07:24:31;95064.78;;;27.13;34.28
21182;BME280;10749;46.296;7.524;2022-08-02T07:26:58;95059.59;;;27.17;34.30
21182;BME280;10749;46.296;7.524;2022-08-02T07:29:23;95059.84;;;27.25;33.93
21182;BME280;10749;46.296;7.524;2022-08-02T07:31:49;95066.91;;;27.31;34.11
21182;BME280;10749;46.296;7.524;2022-08-02T07:34:15;95061.16;;;27.38;34.04
21182;BME280;10749;46.296;7.524;2022-08-02T07:36:40;95055.69;;;27.43;33.79
21182;BME280;10749;46.296;7.524;2022-08-02T07:39:05;95051.59;;;27.50;34.05
21182;BME280;10749;46.296;7.524;2022-08-02T07:41:31;95051.09;;;27.48;33.73
21182;BME280;10749;46.296;7.524;2022-08-02T07:43:56;95043.16;;;27.57;33.62
21182;BME280;10749;46.296;7.524;2022-08-02T07:46:21;95037.69;;;27.62;33.55
21182;BME280;10749;46.296;7.524;2022-08-02T07:48:47;95040.59;;;27.71;33.75
21182;BME280;10749;46.296;7.524;2022-08-02T07:51:13;95044.91;;;27.82;33.41
21182;BME280;10749;46.296;7.524;2022-08-02T07:53:39;95029.66;;;27.86;33.33
21182;BME280;10749;46.296;7.524;2022-08-02T07:56:04;95029.03;;;27.94;33.32
21182;BME280;10749;46.296;7.524;2022-08-02T07:58:29;95026.38;;;27.84;33.02
21182;BME280;10749;46.296;7.524;2022-08-02T08:00:55;95023.03;;;27.97;33.14
21182;BME280;10749;46.296;7.524;2022-08-02T08:03:20;95022.44;;;28.00;33.24
21182;BME280;10749;46.296;7.524;2022-08-02T08:05:45;95016.03;;;27.91;33.23
21182;BME280;10749;46.296;7.524;2022-08-02T08:08:11;95013.16;;;28.06;33.11
21182;BME280;10749;46.296;7.524;2022-08-02T08:10:36;95009.91;;;28.04;33.26
21182;BME280;10749;46.296;7.524;2022-08-02T08:13:03;95006.06;;;28.15;33.02
21182;BME280;10749;46.296;7.524;2022-08-02T08:15:29;95008.91;;;28.29;32.76
21182;BME280;10749;46.296;7.524;2022-08-02T08:17:54;95006.19;;;28.29;33.06
21182;BME280;10749;46.296;7.524;2022-08-02T08:20:19;94993.94;;;28.31;32.74
21182;BME280;10749;46.296;7.524;2022-08-02T08:22:44;94995.31;;;28.29;32.86
21182;BME280;10749;46.296;7.524;2022-08-02T08:25:10;94994.78;;;28.27;32.71
21182;BME280;10749;46.296;7.524;2022-08-02T08:27:35;94994.25;;;28.25;32.69
21182;BME280;10749;46.296;7.524;2022-08-02T08:30:00;94993.44;;;28.24;32.63
21182;BME280;10749;46.296;7.524;2022-08-02T08:32:26;94991.25;;;28.26;32.46
21182;BME280;10749;46.296;7.524;2022-08-02T08:34:51;94976.56;;;28.27;32.59
21182;BME280;10749;46.296;7.524;2022-08-02T08:37:17;94984.19;;;28.25;32.42
21182;BME280;10749;46.296;7.524;2022-08-02T08:39:42;94978.19;;;28.28;32.73
21182;BME280;10749;46.296;7.524;2022-08-02T08:42:08;94974.88;;;28.31;32.20
21182;BME280;10749;46.296;7.524;2022-08-02T08:44:34;94978.13;;;28.33;32.37
21182;BME280;10749;46.296;7.524;2022-08-02T08:47:02;94965.09;;;28.30;32.10
21182;BME280;10749;46.296;7.524;2022-08-02T08:49:32;94958.56;;;28.31;32.57
21182;BME280;10749;46.296;7.524;2022-08-02T08:52:03;94963.13;;;28.36;32.20
21182;BME280;10749;46.296;7.524;2022-08-02T08:54:30;94962.28;;;28.40;32.32
21182;BME280;10749;46.296;7.524;2022-08-02T08:56:56;94956.19;;;28.49;32.49
21182;BME280;10749;46.296;7.524;2022-08-02T08:59:22;94957.81;;;28.50;32.04
21182;BME280;10749;46.296;7.524;2022-08-02T09:01:51;94956.13;;;28.54;32.18
21182;BME280;10749;46.296;7.524;2022-08-02T09:04:17;94954.22;;;28.54;32.03
21182;BME280;10749;46.296;7.524;2022-08-02T09:06:43;94952.91;;;28.52;31.91
21182;BME280;10749;46.296;7.524;2022-08-02T09:09:08;94948.25;;;28.52;32.19
21182;BME280;10749;46.296;7.524;2022-08-02T09:11:34;94948.50;;;28.56;32.23
21182;BME280;10749;46.296;7.524;2022-08-02T09:14:00;94940.19;;;28.66;31.86
21182;BME280;10749;46.296;7.524;2022-08-02T09:16:35;94939.63;;;28.74;32.11
21182;BME280;10749;46.296;7.524;2022-08-02T09:19:19;94940.34;;;28.79;31.98
21182;BME280;10749;46.296;7.524;2022-08-02T09:21:45;94938.38;;;28.85;31.96
21182;BME280;10749;46.296;7.524;2022-08-02T09:24:18;94942.91;;;28.95;31.77
21182;BME280;10749;46.296;7.524;2022-08-02T09:26:45;94934.94;;;28.98;31.77
21182;BME280;10749;46.296;7.524;2022-08-02T09:29:11;94941.50;;;28.97;31.61
21182;BME280;10749;46.296;7.524;2022-08-02T09:31:37;94928.16;;;28.96;31.65
21182;BME280;10749;46.296;7.524;2022-08-02T09:34:03;94941.28;;;28.94;31.28
21182;BME280;10749;46.296;7.524;2022-08-02T09:36:42;94939.22;;;29.04;31.62
21182;BME280;10749;46.296;7.524;2022-08-02T09:39:10;94941.06;;;29.09;31.38
21182;BME280;10749;46.296;7.524;2022-08-02T09:41:38;94938.56;;;29.12;31.63
21182;BME280;10749;46.296;7.524;2022-08-02T09:44:06;94935.34;;;29.10;31.04
21182;BME280;10749;46.296;7.524;2022-08-02T09:46:35;94935.75;;;28.99;30.74
21182;BME280;10749;46.296;7.524;2022-08-02T09:49:04;94925.59;;;29.04;30.79
21182;BME280;10749;46.296;7.524;2022-08-02T09:51:32;94936.16;;;29.11;31.20
21182;BME280;10749;46.296;7.524;2022-08-02T09:54:06;94927.88;;;29.16;31.23
21182;BME280;10749;46.296;7.524;2022-08-02T09:56:45;94934.25;;;29.30;31.02
21182;BME280;10749;46.296;7.524;2022-08-02T09:59:11;94930.06;;;29.38;30.84
21182;BME280;10749;46.296;7.524;2022-08-02T10:01:37;94930.06;;;29.38;30.58
21182;BME280;10749;46.296;7.524;2022-08-02T10:04:07;94928.69;;;29.40;30.64
21182;BME280;10749;46.296;7.524;2022-08-02T10:06:36;94922.31;;;29.45;30.69
21182;BME280;10749;46.296;7.524;2022-08-02T10:09:02;94912.06;;;29.55;30.53
21182;BME280;10749;46.296;7.524;2022-08-02T10:11:28;94908.69;;;29.63;30.47
21182;BME280;10749;46.296;7.524;2022-08-02T10:13:54;94903.97;;;29.69;30.23
21182;BME280;10749;46.296;7.524;2022-08-02T10:16:21;94910.34;;;29.78;30.28
21182;BME280;10749;46.296;7.524;2022-08-02T10:18:53;94902.16;;;29.78;30.08
21182;BME280;10749;46.296;7.524;2022-08-02T10:21:26;94898.03;;;29.80;29.85
21182;BME280;10749;46.296;7.524;2022-08-02T10:24:22;94899.06;;;29.85;29.95
21182;BME280;10749;46.296;7.524;2022-08-02T10:26:49;94904.06;;;29.96;29.81
21182;BME280;10749;46.296;7.524;2022-08-02T10:29:16;94882.56;;;30.08;29.86
21182;BME280;10749;46.296;7.524;2022-08-02T10:34:12;94886.94;;;30.23;29.80
21182;BME280;10749;46.296;7.524;2022-08-02T10:36:39;94875.63;;;30.30;29.58
21182;BME280;10749;46.296;7.524;2022-08-02T10:39:06;94873.38;;;30.32;29.19
21182;BME280;10749;46.296;7.524;2022-08-02T10:41:49;94867.72;;;30.42;29.58
21182;BME280;10749;46.296;7.524;2022-08-02T10:44:28;94870.78;;;30.54;29.68
21182;BME280;10749;46.296;7.524;2022-08-02T10:49:57;94855.63;;;30.75;29.51
21182;BME280;10749;46.296;7.524;2022-08-02T10:52:29;94857.75;;;30.64;28.86
21182;BME280;10749;46.296;7.524;2022-08-02T10:55:11;94860.50;;;30.64;29.18
21182;BME280;10749;46.296;7.524;2022-08-02T10:57:38;94855.72;;;30.70;29.09
21182;BME280;10749;46.296;7.524;2022-08-02T11:00:25;94854.78;;;30.88;29.29
21182;BME280;10749;46.296;7.524;2022-08-02T11:02:51;94849.22;;;30.93;28.84
21182;BME280;10749;46.296;7.524;2022-08-02T11:05:27;94834.13;;;31.09;28.83
21182;BME280;10749;46.296;7.524;2022-08-02T11:07:52;94844.44;;;31.12;28.40
21182;BME280;10749;46.296;7.524;2022-08-02T11:13:05;94833.31;;;31.31;27.97
21182;BME280;10749;46.296;7.524;2022-08-02T11:21:26;94829.09;;;31.47;28.43
21182;BME280;10749;46.296;7.524;2022-08-02T11:23:53;94824.53;;;31.56;27.78
21182;BME280;10749;46.296;7.524;2022-08-02T11:28:53;94816.38;;;31.87;27.99
21182;BME280;10749;46.296;7.524;2022-08-02T11:31:19;94803.16;;;31.89;27.83
21182;BME280;10749;46.296;7.524;2022-08-02T11:33:47;94809.13;;;31.91;27.31
21182;BME280;10749;46.296;7.524;2022-08-02T11:36:14;94805.78;;;31.94;27.26
21182;BME280;10749;46.296;7.524;2022-08-02T11:38:40;94797.97;;;32.10;27.58
21182;BME280;10749;46.296;7.524;2022-08-02T11:41:05;94793.91;;;32.08;26.71
21182;BME280;10749;46.296;7.524;2022-08-02T11:43:31;94796.66;;;32.08;26.91
21182;BME280;10749;46.296;7.524;2022-08-02T11:45:57;94783.84;;;32.17;27.03
21182;BME280;10749;46.296;7.524;2022-08-02T11:48:37;94787.25;;;32.31;27.08
21182;BME280;10749;46.296;7.524;2022-08-02T11:51:14;94785.38;;;32.40;26.63
21182;BME280;10749;46.296;7.524;2022-08-02T11:56:09;94775.38;;;32.44;26.03
21182;BME280;10749;46.296;7.524;2022-08-02T11:58:35;94774.63;;;32.61;26.58
21182;BME280;10749;46.296;7.524;2022-08-02T12:01:01;94766.31;;;32.74;26.21
21182;BME280;10749;46.296;7.524;2022-08-02T12:03:27;94775.00;;;32.76;25.89
21182;BME280;10749;46.296;7.524;2022-08-02T12:05:52;94771.63;;;32.79;25.65
21182;BME280;10749;46.296;7.524;2022-08-02T12:08:18;94765.53;;;33.00;25.95
21182;BME280;10749;46.296;7.524;2022-08-02T12:10:47;94766.19;;;33.14;25.68
21182;BME280;10749;46.296;7.524;2022-08-02T12:13:13;94758.91;;;33.26;25.94
21182;BME280;10749;46.296;7.524;2022-08-02T12:15:41;94758.75;;;33.40;26.06
21182;BME280;10749;46.296;7.524;2022-08-02T12:18:16;94760.50;;;33.53;25.89
21182;BME280;10749;46.296;7.524;2022-08-02T12:21:02;94750.16;;;33.67;25.37
21182;BME280;10749;46.296;7.524;2022-08-02T12:23:28;94751.72;;;33.85;25.75
21182;BME280;10749;46.296;7.524;2022-08-02T12:28:33;94745.81;;;34.04;25.67
21182;BME280;10749;46.296;7.524;2022-08-02T12:30:59;94739.34;;;34.09;25.05
21182;BME280;10749;46.296;7.524;2022-08-02T12:33:43;94739.03;;;34.19;25.19
21182;BME280;10749;46.296;7.524;2022-08-02T12:38:56;94731.19;;;34.29;25.15
21182;BME280;10749;46.296;7.524;2022-08-02T12:41:23;94723.44;;;34.32;24.76
21182;BME280;10749;46.296;7.524;2022-08-02T12:43:50;94726.16;;;34.40;24.31
21182;BME280;10749;46.296;7.524;2022-08-02T12:46:20;94715.03;;;34.37;21.94
21182;BME280;10749;46.296;7.524;2022-08-02T12:48:46;94718.66;;;34.49;23.79
21182;BME280;10749;46.296;7.524;2022-08-02T12:51:31;94711.59;;;34.69;24.14
21182;BME280;10749;46.296;7.524;2022-08-02T12:54:15;94710.84;;;34.81;23.94
21182;BME280;10749;46.296;7.524;2022-08-02T12:56:42;94710.78;;;34.89;23.32
21182;BME280;10749;46.296;7.524;2022-08-02T12:59:08;94702.94;;;35.00;23.49
21182;BME280;10749;46.296;7.524;2022-08-02T13:01:34;94707.22;;;35.09;23.66
21182;BME280;10749;46.296;7.524;2022-08-02T13:04:00;94702.03;;;35.08;23.00
21182;BME280;10749;46.296;7.524;2022-08-02T13:06:25;94693.81;;;35.08;22.62
21182;BME280;10749;46.296;7.524;2022-08-02T13:08:51;94696.19;;;35.18;22.82
21182;BME280;10749;46.296;7.524;2022-08-02T13:11:18;94692.41;;;35.23;22.60
21182;BME280;10749;46.296;7.524;2022-08-02T13:13:44;94688.72;;;35.18;21.28
21182;BME280;10749;46.296;7.524;2022-08-02T13:16:09;94689.78;;;35.26;22.22
21182;BME280;10749;46.296;7.524;2022-08-02T13:18:35;94690.31;;;35.40;22.30
21182;BME280;10749;46.296;7.524;2022-08-02T13:21:01;94688.38;;;35.53;21.71
21182;BME280;10749;46.296;7.524;2022-08-02T13:23:28;94681.72;;;35.54;20.63
21182;BME280;10749;46.296;7.524;2022-08-02T13:25:54;94682.13;;;35.64;21.29
21182;BME280;10749;46.296;7.524;2022-08-02T13:28:20;94679.16;;;35.70;21.05
21182;BME280;10749;46.296;7.524;2022-08-02T13:30:46;94673.19;;;35.80;20.60
21182;BME280;10749;46.296;7.524;2022-08-02T13:33:12;94672.66;;;35.86;20.86
21182;BME280;10749;46.296;7.524;2022-08-02T13:35:37;94680.09;;;35.98;20.64
21182;BME280;10749;46.296;7.524;2022-08-02T13:38:02;94670.00;;;36.02;20.64
21182;BME280;10749;46.296;7.524;2022-08-02T13:40:28;94674.25;;;36.12;20.92
21182;BME280;10749;46.296;7.524;2022-08-02T13:42:54;94660.97;;;36.14;19.64
21182;BME280;10749;46.296;7.524;2022-08-02T13:45:19;94663.25;;;36.12;20.47
21182;BME280;10749;46.296;7.524;2022-08-02T13:47:45;94662.91;;;36.25;20.53